createdAt,value
2023-04-28T00:01:28.244Z,55.11
2023-04-28T00:03:55.641Z,55.68
2023-04-28T00:06:22.450Z,55.45
2023-04-28T00:08:48.982Z,55.43
2023-04-28T00:11:15.484Z,55.59
2023-04-28T00:13:42.087Z,55.33
2023-04-28T00:16:08.614Z,55.97
2023-04-28T00:18:35.285Z,55.77
2023-04-28T00:21:01.976Z,55.10
2023-04-28T00:23:28.585Z,55.55
2023-04-28T00:25:57.495Z,56.04
2023-04-28T00:30:53.523Z,55.71
2023-04-28T00:33:20.145Z,55.54
2023-04-28T00:35:46.669Z,55.60
2023-04-28T00:38:13.210Z,55.73
2023-04-28T00:40:39.873Z,55.90
2023-04-28T00:43:06.980Z,55.66
2023-04-28T00:45:33.577Z,56.25
2023-04-28T00:48:00.783Z,56.07
2023-04-28T00:50:28.336Z,56.02
2023-04-28T00:52:54.937Z,55.59
2023-04-28T00:55:22.177Z,56.45
2023-04-28T00:57:48.798Z,55.84
2023-04-28T01:00:16.348Z,55.70
2023-04-28T01:02:43.100Z,56.06
2023-04-28T01:05:10.328Z,55.74
2023-04-28T01:07:37.700Z,55.80
2023-04-28T01:10:06.889Z,55.89
2023-04-28T01:12:34.317Z,56.11
2023-04-28T01:15:01.542Z,56.05
2023-04-28T01:17:29.856Z,55.84
2023-04-28T01:19:56.506Z,56.07
2023-04-28T01:22:23.001Z,55.61
2023-04-28T01:24:49.532Z,55.63
2023-04-28T01:27:16.605Z,55.60
2023-04-28T01:29:43.994Z,55.83
2023-04-28T01:32:10.506Z,55.79
2023-04-28T01:34:37.102Z,55.66
2023-04-28T01:37:05.964Z,55.68
2023-04-28T01:39:32.756Z,55.68
2023-04-28T01:41:59.212Z,56.05
2023-04-28T01:44:26.166Z,55.65
2023-04-28T01:46:52.667Z,56.04
2023-04-28T01:49:21.488Z,56.09
2023-04-28T01:51:48.165Z,56.11
2023-04-28T01:54:14.777Z,55.91
2023-04-28T01:56:42.116Z,56.01
2023-04-28T01:59:09.394Z,55.89
2023-04-28T02:01:36.511Z,55.75
2023-04-28T02:04:03.199Z,55.90
2023-04-28T02:06:33.046Z,55.62
2023-04-28T02:08:59.653Z,55.92
2023-04-28T02:11:26.139Z,55.66
2023-04-28T02:13:56.055Z,55.31
2023-04-28T02:16:22.591Z,55.59
2023-04-28T02:18:50.240Z,55.53
2023-04-28T02:21:16.828Z,55.79
2023-04-28T02:23:44.936Z,55.28
2023-04-28T02:26:11.562Z,55.26
2023-04-28T02:28:38.111Z,54.85
2023-04-28T02:31:10.279Z,54.90
2023-04-28T02:33:37.695Z,55.32
2023-04-28T02:36:05.547Z,54.82
2023-04-28T02:38:32.229Z,54.85
2023-04-28T02:41:04.807Z,54.82
2023-04-28T02:43:32.202Z,54.48
2023-04-28T02:45:58.778Z,54.59
2023-04-28T02:48:25.906Z,54.36
2023-04-28T02:50:53.331Z,54.60
2023-04-28T02:53:20.906Z,54.60
2023-04-28T02:55:48.259Z,54.46
2023-04-28T02:58:15.104Z,54.70
2023-04-28T03:00:41.671Z,54.66
2023-04-28T03:03:08.305Z,55.07
2023-04-28T03:05:35.041Z,55.10
2023-04-28T03:08:01.685Z,55.38
2023-04-28T03:10:28.446Z,55.21
2023-04-28T03:12:55.082Z,55.20
2023-04-28T03:15:21.714Z,55.62
2023-04-28T03:17:48.365Z,55.68
2023-04-28T03:20:15.512Z,55.73
2023-04-28T03:22:42.282Z,55.69
2023-04-28T03:25:09.136Z,55.99
2023-04-28T03:27:44.569Z,55.84
2023-04-28T03:30:11.706Z,56.10
2023-04-28T03:32:38.256Z,56.13
2023-04-28T03:35:05.128Z,56.27
2023-04-28T03:37:31.637Z,56.40
2023-04-28T03:39:58.835Z,56.31
2023-04-28T03:42:25.547Z,56.06
2023-04-28T03:45:09.215Z,56.27
2023-04-28T03:47:36.239Z,56.30
2023-04-28T03:50:05.548Z,55.85
2023-04-28T03:52:32.428Z,56.33
2023-04-28T03:54:59.150Z,56.20
2023-04-28T03:57:25.837Z,56.13
2023-04-28T03:59:52.417Z,56.50
2023-04-28T04:02:19.067Z,56.65
2023-04-28T04:04:45.693Z,56.78
2023-04-28T04:07:13.125Z,56.75
2023-04-28T04:09:40.261Z,57.04
2023-04-28T04:12:07.722Z,56.84
2023-04-28T04:14:34.383Z,56.93
2023-04-28T04:17:01.298Z,57.08
2023-04-28T04:19:28.089Z,57.51
2023-04-28T04:21:55.440Z,57.29
2023-04-28T04:24:22.498Z,57.60
2023-04-28T04:26:49.328Z,57.42
2023-04-28T04:29:28.819Z,57.59
2023-04-28T04:31:55.764Z,57.93
2023-04-28T04:34:22.272Z,57.39
2023-04-28T04:36:49.159Z,58.02
2023-04-28T04:39:15.827Z,57.89
2023-04-28T04:41:42.405Z,57.82
2023-04-28T04:44:32.067Z,57.79
2023-04-28T04:46:59.814Z,58.13
2023-04-28T04:49:26.718Z,58.38
2023-04-28T04:51:53.342Z,58.61
2023-04-28T04:54:19.867Z,58.43
2023-04-28T04:56:47.038Z,58.75
2023-04-28T04:59:18.523Z,58.71
2023-04-28T05:01:52.617Z,58.75
2023-04-28T05:04:19.512Z,58.90
2023-04-28T05:06:47.474Z,58.81
2023-04-28T05:09:13.954Z,58.49
2023-04-28T05:11:40.984Z,58.06
2023-04-28T05:14:07.451Z,58.12
2023-04-28T05:16:34.176Z,58.20
2023-04-28T05:19:21.461Z,57.84
2023-04-28T05:21:48.332Z,57.63
2023-04-28T05:24:15.308Z,57.67
2023-04-28T05:26:42.026Z,57.76
2023-04-28T05:29:10.028Z,57.07
2023-04-28T05:31:36.838Z,57.77
2023-04-28T05:34:03.461Z,57.53
2023-04-28T05:36:30.217Z,56.58
2023-04-28T05:38:56.848Z,56.64
2023-04-28T05:41:23.650Z,56.61
2023-04-28T05:43:51.378Z,56.17
2023-04-28T05:46:30.087Z,56.88
2023-04-28T05:48:59.054Z,56.06
2023-04-28T05:51:27.286Z,55.81
2023-04-28T05:53:53.892Z,55.08
2023-04-28T05:56:21.000Z,55.00
2023-04-28T05:58:49.860Z,54.80
2023-04-28T06:01:16.907Z,55.04
2023-04-28T06:03:43.845Z,54.74
2023-04-28T06:06:11.211Z,54.06
2023-04-28T06:08:41.245Z,53.97
2023-04-28T06:11:07.789Z,53.60
2023-04-28T06:13:34.617Z,53.41
2023-04-28T06:16:03.150Z,53.09
2023-04-28T06:18:32.488Z,53.47
2023-04-28T06:21:00.989Z,53.48
2023-04-28T06:23:27.536Z,52.44
2023-04-28T06:25:54.408Z,53.42
2023-04-28T06:28:21.007Z,52.81
2023-04-28T06:30:47.578Z,52.81
2023-04-28T06:33:14.049Z,55.98
2023-04-28T06:35:40.800Z,54.38
2023-04-28T06:38:07.412Z,53.66
2023-04-28T06:40:33.947Z,51.62
2023-04-28T06:43:02.652Z,51.15
2023-04-28T06:45:37.595Z,49.76
2023-04-28T06:48:05.027Z,48.86
2023-04-28T06:50:31.518Z,48.85
2023-04-28T06:52:58.901Z,47.67
2023-04-28T06:55:26.789Z,46.88
2023-04-28T06:57:53.449Z,46.93
2023-04-28T07:00:20.077Z,47.36
2023-04-28T07:02:46.798Z,48.12
2023-04-28T07:05:16.134Z,48.03
2023-04-28T07:07:43.199Z,47.98
2023-04-28T07:10:11.277Z,47.96
2023-04-28T07:12:37.799Z,48.36
2023-04-28T07:15:04.637Z,48.61
2023-04-28T07:17:31.284Z,49.04
2023-04-28T07:19:57.848Z,48.84
2023-04-28T07:22:24.473Z,48.59
2023-04-28T07:24:51.377Z,48.54
2023-04-28T07:27:17.907Z,48.31
2023-04-28T07:29:44.408Z,48.05
2023-04-28T07:32:11.190Z,48.14
2023-04-28T07:34:37.897Z,48.12
2023-04-28T07:37:04.789Z,47.71
2023-04-28T07:39:33.840Z,47.15
2023-04-28T07:42:03.639Z,47.30
2023-04-28T07:44:31.220Z,46.47
2023-04-28T07:46:59.372Z,46.87
2023-04-28T07:49:27.262Z,46.17
2023-04-28T07:51:55.369Z,46.83
2023-04-28T07:54:22.177Z,46.79
2023-04-28T07:56:48.887Z,46.78
2023-04-28T07:59:15.464Z,45.83
2023-04-28T08:01:43.022Z,46.30
2023-04-28T08:04:10.141Z,46.59
2023-04-28T08:06:36.850Z,45.76
2023-04-28T08:09:05.908Z,45.49
2023-04-28T08:11:33.447Z,45.29
2023-04-28T08:14:02.995Z,45.48
2023-04-28T08:16:31.042Z,44.45
2023-04-28T08:18:59.051Z,44.88
2023-04-28T08:21:26.027Z,44.36
2023-04-28T08:23:52.581Z,45.13
2023-04-28T08:26:19.149Z,44.77
2023-04-28T08:28:45.702Z,44.39
2023-04-28T08:31:12.279Z,44.35
2023-04-28T08:33:39.085Z,43.66
2023-04-28T08:36:06.350Z,43.74
2023-04-28T08:38:34.995Z,43.96
2023-04-28T08:41:04.638Z,43.93
2023-04-28T08:43:36.474Z,44.54
2023-04-28T08:46:08.091Z,43.98
2023-04-28T08:48:42.834Z,43.54
2023-04-28T08:51:11.494Z,44.29
2023-04-28T08:54:11.262Z,44.52
2023-04-28T08:56:27.844Z,44.50
2023-04-28T08:58:54.969Z,44.97
2023-04-28T09:01:21.478Z,44.89
2023-04-28T09:03:49.430Z,45.04
2023-04-28T09:06:16.076Z,45.63
2023-04-28T09:08:42.957Z,45.03
2023-04-28T09:11:11.139Z,44.69
2023-04-28T09:13:37.696Z,43.67
2023-04-28T09:16:04.619Z,42.97
2023-04-28T09:18:34.529Z,43.82
2023-04-28T09:21:10.318Z,43.51
2023-04-28T09:23:49.144Z,42.42
2023-04-28T09:26:16.126Z,42.62
2023-04-28T09:28:42.699Z,41.63
2023-04-28T09:31:23.766Z,41.83
2023-04-28T09:33:57.270Z,42.62
2023-04-28T09:36:30.855Z,42.49
2023-04-28T09:38:59.261Z,41.72
2023-04-28T09:41:45.465Z,41.86
2023-04-28T09:44:17.130Z,41.38
2023-04-28T09:46:48.193Z,41.27
2023-04-28T09:49:15.670Z,41.49
2023-04-28T09:51:42.243Z,41.45
2023-04-28T09:54:08.837Z,41.44
2023-04-28T09:56:41.023Z,40.28
2023-04-28T09:59:08.211Z,41.25
2023-04-28T10:01:40.680Z,41.27
2023-04-28T10:04:09.001Z,40.37
2023-04-28T10:06:38.768Z,41.26
2023-04-28T10:09:06.073Z,41.09
2023-04-28T10:11:33.972Z,41.30
2023-04-28T10:14:00.672Z,41.36
2023-04-28T10:16:32.122Z,41.48
2023-04-28T10:18:59.088Z,42.13
2023-04-28T10:21:28.441Z,42.64
2023-04-28T10:24:33.472Z,42.90
2023-04-28T10:27:05.730Z,43.76
2023-04-28T10:29:33.841Z,43.61
2023-04-28T10:32:19.989Z,44.08
2023-04-28T10:34:47.277Z,43.88
2023-04-28T10:37:15.202Z,44.12
2023-04-28T10:40:20.077Z,43.91
2023-04-28T10:42:54.481Z,44.49
2023-04-28T10:45:56.145Z,44.73
2023-04-28T10:48:46.462Z,45.15
2023-04-28T10:51:15.774Z,45.10
2023-04-28T10:53:45.584Z,44.82
2023-04-28T10:56:22.008Z,44.66
2023-04-28T10:58:50.723Z,44.94
2023-04-28T11:01:20.069Z,44.79
2023-04-28T11:03:48.812Z,44.63
2023-04-28T11:06:31.916Z,44.96
2023-04-28T11:09:00.419Z,44.82
2023-04-28T11:11:30.558Z,44.71
2023-04-28T11:14:19.080Z,44.80
2023-04-28T11:16:59.875Z,45.26
2023-04-28T11:19:33.211Z,45.56
2023-04-28T11:22:01.959Z,45.35
2023-04-28T11:24:29.668Z,45.85
2023-04-28T11:26:57.644Z,45.36
2023-04-28T11:29:33.583Z,45.21
2023-04-28T11:32:00.768Z,45.80
2023-04-28T11:34:27.748Z,46.13
2023-04-28T11:36:55.026Z,46.46
2023-04-28T11:39:29.877Z,46.22
2023-04-28T11:41:58.177Z,46.40
2023-04-28T11:44:29.757Z,46.59
2023-04-28T11:47:01.904Z,46.04
2023-04-28T11:49:31.011Z,45.90
2023-04-28T11:52:04.026Z,46.49
2023-04-28T11:54:30.555Z,47.07
2023-04-28T11:57:01.197Z,47.26
2023-04-28T11:59:29.404Z,47.32
2023-04-28T12:02:02.744Z,47.71
2023-04-28T12:04:39.325Z,47.38
2023-04-28T12:07:07.175Z,47.31
2023-04-28T12:09:35.504Z,46.98
2023-04-28T12:12:06.561Z,47.29
2023-04-28T12:15:06.211Z,47.01
2023-04-28T12:17:37.834Z,47.19
2023-04-28T12:20:12.742Z,47.17
2023-04-28T12:22:47.501Z,47.66
2023-04-28T12:25:17.231Z,47.55
2023-04-28T12:28:04.100Z,47.64
2023-04-28T12:30:33.442Z,47.67
2023-04-28T12:33:00.308Z,48.01
2023-04-28T12:35:30.431Z,48.14
2023-04-28T12:37:58.985Z,48.22
2023-04-28T12:40:26.120Z,48.72
2023-04-28T12:42:53.312Z,48.66
2023-04-28T12:45:19.810Z,49.34
2023-04-28T12:47:47.233Z,49.34
2023-04-28T12:50:13.868Z,49.48
2023-04-28T12:52:40.501Z,49.72
2023-04-28T12:55:08.179Z,50.47
2023-04-28T12:57:39.044Z,50.33
2023-04-28T13:00:07.492Z,50.36
2023-04-28T13:02:34.549Z,50.71
2023-04-28T13:05:01.969Z,50.53
2023-04-28T13:07:28.753Z,50.85
2023-04-28T13:09:55.911Z,51.00
2023-04-28T13:12:23.529Z,51.61
2023-04-28T13:14:50.082Z,51.45
2023-04-28T13:17:16.639Z,52.01
2023-04-28T13:19:43.823Z,51.38
2023-04-28T13:22:10.644Z,51.03
2023-04-28T13:24:37.597Z,51.04
2023-04-28T13:27:04.348Z,51.17
2023-04-28T13:29:31.008Z,51.29
2023-04-28T13:31:57.720Z,52.40
2023-04-28T13:34:24.257Z,53.00
2023-04-28T13:36:54.029Z,53.39
2023-04-28T13:39:22.013Z,54.00
2023-04-28T13:41:49.445Z,54.77
2023-04-28T13:44:16.839Z,55.32
2023-04-28T13:46:43.571Z,54.84
2023-04-28T13:49:10.668Z,55.08
2023-04-28T13:51:37.225Z,54.27
2023-04-28T13:54:04.710Z,53.44
2023-04-28T13:56:32.008Z,53.62
2023-04-28T13:58:58.888Z,53.42
2023-04-28T14:01:25.664Z,54.23
2023-04-28T14:03:52.520Z,53.54
2023-04-28T14:06:19.261Z,54.31
2023-04-28T14:08:45.744Z,55.03
2023-04-28T14:11:12.311Z,55.13
2023-04-28T14:13:39.007Z,55.76
2023-04-28T14:16:05.792Z,55.23
2023-04-28T14:18:33.855Z,55.76
2023-04-28T14:21:02.085Z,55.51
2023-04-28T14:23:28.765Z,55.20
2023-04-28T14:25:56.913Z,54.95
2023-04-28T14:28:23.937Z,54.90
2023-04-28T14:30:50.635Z,54.91
2023-04-28T14:33:17.367Z,54.95
2023-04-28T14:35:43.999Z,55.06
2023-04-28T14:38:10.855Z,54.63
2023-04-28T14:40:37.364Z,54.91
2023-04-28T14:43:03.804Z,54.75
2023-04-28T14:45:31.457Z,55.44
2023-04-28T14:47:58.065Z,56.09
2023-04-28T14:50:24.963Z,56.13
2023-04-28T14:52:51.784Z,56.49
2023-04-28T14:55:18.426Z,56.07
2023-04-28T14:57:44.877Z,56.48
2023-04-28T15:00:12.232Z,56.48
2023-04-28T15:02:39.099Z,56.74
2023-04-28T15:05:06.298Z,56.81
2023-04-28T15:07:33.242Z,57.04
2023-04-28T15:10:00.650Z,56.92
2023-04-28T15:12:30.089Z,56.70
2023-04-28T15:14:56.749Z,57.00
2023-04-28T15:17:23.397Z,57.62
2023-04-28T15:19:50.088Z,57.39
2023-04-28T15:22:16.930Z,57.57
2023-04-28T15:24:43.448Z,57.51
2023-04-28T15:27:10.022Z,57.79
2023-04-28T15:29:36.544Z,57.74
2023-04-28T15:32:03.183Z,57.83
2023-04-28T15:34:29.749Z,58.39
2023-04-28T15:36:56.695Z,57.98
2023-04-28T15:39:25.075Z,58.32
2023-04-28T15:41:55.058Z,58.42
2023-04-28T15:44:21.515Z,58.29
2023-04-28T15:46:47.996Z,58.13
2023-04-28T15:49:14.980Z,58.40
2023-04-28T15:51:42.226Z,59.04
2023-04-28T15:54:09.872Z,59.14
2023-04-28T15:56:36.410Z,59.41
2023-04-28T15:59:04.319Z,60.18
2023-04-28T16:01:30.933Z,60.56
2023-04-28T16:03:57.574Z,60.95
2023-04-28T16:06:25.450Z,61.69
2023-04-28T16:08:51.969Z,61.41
2023-04-28T16:11:20.288Z,61.93
2023-04-28T16:13:46.796Z,62.57
2023-04-28T16:16:13.464Z,63.69
2023-04-28T16:18:40.092Z,63.27
2023-04-28T16:21:07.946Z,63.82
2023-04-28T16:23:34.948Z,64.17
2023-04-28T16:26:01.561Z,65.00
2023-04-28T16:28:28.589Z,65.51
2023-04-28T16:30:55.276Z,65.81
2023-04-28T16:33:21.751Z,65.97
2023-04-28T16:35:55.873Z,66.51
2023-04-28T16:38:22.418Z,66.55
2023-04-28T16:40:49.524Z,67.25
2023-04-28T16:43:15.995Z,67.89
2023-04-28T16:45:42.984Z,68.63
2023-04-28T16:48:10.818Z,69.09
2023-04-28T16:50:39.123Z,69.56
2023-04-28T16:53:08.685Z,69.92
2023-04-28T16:55:38.161Z,70.45
2023-04-28T16:58:04.745Z,70.75
2023-04-28T17:00:32.056Z,71.21
2023-04-28T17:02:58.649Z,71.91
2023-04-28T17:05:25.514Z,72.19
2023-04-28T17:07:52.108Z,72.13
2023-04-28T17:10:18.687Z,72.42
2023-04-28T17:12:45.566Z,72.70
2023-04-28T17:15:17.272Z,72.00
2023-04-28T17:17:49.012Z,72.66
2023-04-28T17:20:18.395Z,72.95
2023-04-28T17:22:44.876Z,72.97
2023-04-28T17:25:12.123Z,73.43
2023-04-28T17:27:38.841Z,73.82
2023-04-28T17:30:09.270Z,74.02
2023-04-28T17:32:37.287Z,74.48
2023-04-28T17:35:05.013Z,74.78
2023-04-28T17:37:33.115Z,75.22
2023-04-28T17:40:00.664Z,76.26
2023-04-28T17:42:33.599Z,77.99
2023-04-28T17:45:00.200Z,78.95
2023-04-28T17:47:26.754Z,79.82
2023-04-28T17:49:54.224Z,81.18
2023-04-28T17:52:20.807Z,81.90
2023-04-28T17:54:47.623Z,82.34
2023-04-28T17:57:14.539Z,83.20
2023-04-28T17:59:42.616Z,84.26
2023-04-28T18:02:10.463Z,85.52
2023-04-28T18:04:37.734Z,85.98
2023-04-28T18:07:04.258Z,86.64
2023-04-28T18:09:31.756Z,86.89
2023-04-28T18:11:58.389Z,87.15
2023-04-28T18:14:24.976Z,87.77
2023-04-28T18:16:51.480Z,87.96
2023-04-28T18:19:17.998Z,89.07
2023-04-28T18:21:44.451Z,89.75
2023-04-28T18:24:10.985Z,90.08
2023-04-28T18:26:37.502Z,90.49
2023-04-28T18:29:04.139Z,90.83
2023-04-28T18:31:31.201Z,91.37
2023-04-28T18:33:57.727Z,91.70
2023-04-28T18:36:24.215Z,92.05
2023-04-28T18:38:50.729Z,92.45
2023-04-28T18:41:18.360Z,92.79
2023-04-28T18:43:44.960Z,93.02
2023-04-28T18:46:11.603Z,93.08
2023-04-28T18:48:38.431Z,93.40
2023-04-28T18:51:05.505Z,93.50
2023-04-28T18:53:32.664Z,93.67
2023-04-28T18:55:59.472Z,93.73
2023-04-28T18:58:26.008Z,94.29
2023-04-28T19:00:52.975Z,94.55
2023-04-28T19:03:20.506Z,94.87
2023-04-28T19:05:48.235Z,94.90
2023-04-28T19:08:14.838Z,94.97
2023-04-28T19:10:41.447Z,95.22
2023-04-28T19:13:08.113Z,95.91
2023-04-28T19:15:35.025Z,95.74
2023-04-28T19:18:05.195Z,95.92
2023-04-28T19:20:31.775Z,96.14
2023-04-28T19:23:01.572Z,96.35
2023-04-28T19:25:30.544Z,96.61
2023-04-28T19:27:57.027Z,97.17
2023-04-28T19:30:23.529Z,97.39
2023-04-28T19:32:50.047Z,97.71
2023-04-28T19:35:16.615Z,98.03
2023-04-28T19:37:43.240Z,98.61
2023-04-28T19:40:10.460Z,98.50
2023-04-28T19:42:36.910Z,98.78
2023-04-28T19:45:04.010Z,99.10
2023-04-28T19:47:35.967Z,98.99
2023-04-28T19:50:02.574Z,98.99
2023-04-28T19:52:29.208Z,98.99
2023-04-28T19:54:55.859Z,99.33
2023-04-28T19:57:22.425Z,99.10
2023-04-28T19:59:49.759Z,99.64
2023-04-28T20:02:17.185Z,99.64
2023-04-28T20:04:44.019Z,99.92
2023-04-28T20:07:11.402Z,99.66
2023-04-28T20:09:38.637Z,99.71
2023-04-28T20:12:06.810Z,99.62
2023-04-28T20:14:33.692Z,99.48
2023-04-28T20:17:02.247Z,99.84
2023-04-28T20:19:28.747Z,99.71
2023-04-28T20:21:55.998Z,100.00
2023-04-28T20:24:22.667Z,100.00
2023-04-28T20:26:50.132Z,100.00
2023-04-28T20:29:16.780Z,100.00
2023-04-28T20:31:43.514Z,100.00
2023-04-28T20:34:10.152Z,100.00
2023-04-28T20:36:39.012Z,100.00
2023-04-28T20:39:11.049Z,100.00
2023-04-28T20:41:38.381Z,100.00
2023-04-28T20:44:05.533Z,100.00
2023-04-28T20:46:33.124Z,100.00
2023-04-28T20:49:00.193Z,100.00
2023-04-28T20:51:28.901Z,100.00
2023-04-28T20:53:56.686Z,100.00
2023-04-28T20:56:23.371Z,100.00
2023-04-28T20:58:49.944Z,100.00
2023-04-28T21:01:16.535Z,100.00
2023-04-28T21:03:43.504Z,100.00
2023-04-28T21:06:10.187Z,100.00
2023-04-28T21:08:36.944Z,100.00
2023-04-28T21:11:03.623Z,100.00
2023-04-28T21:13:30.072Z,100.00
2023-04-28T21:15:56.788Z,100.00
2023-04-28T21:18:23.432Z,100.00
2023-04-28T21:20:51.054Z,100.00
2023-04-28T21:23:17.629Z,100.00
2023-04-28T21:25:44.259Z,100.00
2023-04-28T21:28:10.928Z,100.00
2023-04-28T21:30:37.517Z,100.00
2023-04-28T21:33:04.212Z,100.00
2023-04-28T21:35:30.779Z,100.00
2023-04-28T21:37:57.270Z,100.00
2023-04-28T21:40:23.837Z,100.00
2023-04-28T21:42:50.979Z,100.00
2023-04-28T21:45:17.574Z,100.00
2023-04-28T21:47:44.404Z,100.00
2023-04-28T21:50:11.468Z,100.00
2023-04-28T21:52:39.378Z,100.00
2023-04-28T21:55:06.480Z,100.00
2023-04-28T21:57:33.120Z,100.00
2023-04-28T21:59:59.642Z,100.00
2023-04-28T22:02:26.313Z,100.00
2023-04-28T22:04:53.782Z,100.00
2023-04-28T22:07:20.572Z,100.00
2023-04-28T22:09:47.337Z,100.00
2023-04-28T22:12:14.488Z,100.00
2023-04-28T22:14:41.736Z,100.00
2023-04-28T22:17:08.536Z,100.00
2023-04-28T22:19:35.417Z,100.00
2023-04-28T22:22:02.271Z,100.00
2023-04-28T22:24:28.801Z,100.00
2023-04-28T22:26:55.225Z,100.00
2023-04-28T22:29:22.056Z,100.00
2023-04-28T22:31:48.776Z,100.00
2023-04-28T22:34:16.768Z,100.00
2023-04-28T22:36:45.006Z,100.00
2023-04-28T22:39:11.908Z,100.00
2023-04-28T22:41:38.469Z,100.00
2023-04-28T22:44:05.173Z,100.00
2023-04-28T22:46:31.819Z,100.00
2023-04-28T22:48:58.897Z,100.00
2023-04-28T22:51:26.993Z,100.00
2023-04-28T22:53:54.293Z,100.00
2023-04-28T22:56:21.904Z,100.00
2023-04-28T22:58:48.529Z,100.00
2023-04-28T23:01:15.129Z,100.00
2023-04-28T23:03:41.962Z,100.00
2023-04-28T23:06:08.594Z,100.00
2023-04-28T23:08:35.537Z,100.00
2023-04-28T23:11:06.559Z,100.00
2023-04-28T23:13:33.286Z,100.00
2023-04-28T23:16:00.449Z,100.00
2023-04-28T23:18:31.599Z,100.00
2023-04-28T23:20:58.332Z,100.00
2023-04-28T23:23:24.879Z,100.00
2023-04-28T23:25:52.023Z,100.00
2023-04-28T23:28:18.816Z,100.00
2023-04-28T23:30:45.319Z,100.00
2023-04-28T23:33:11.955Z,100.00
2023-04-28T23:35:38.560Z,100.00
2023-04-28T23:38:05.025Z,100.00
2023-04-28T23:40:31.544Z,100.00
2023-04-28T23:42:58.139Z,100.00
2023-04-28T23:45:24.702Z,100.00
2023-04-28T23:47:51.368Z,100.00
2023-04-28T23:50:18.140Z,100.00
2023-04-28T23:52:44.690Z,100.00
2023-04-28T23:55:12.876Z,100.00
2023-04-28T23:57:39.909Z,100.00
